Flight Track Log - Related Links

Times and Time Zones

All times are in EDT time to prevent confusion due to time zone crossing. See the N221WR flight status page for this flight to view local times or setup timezone preferences in your user account.

Time Position Orientation Groundspeed Altitude Reporting Facility
EDT Latitude Longitude Course Direction KTS MPH feet Rate Location/Type
Wed 08:03:02 PM 36.0594 -115.1817 197° South 169 194 3,600  Level Los Angeles Center
Wed 08:03:29 PM 36.0461 -115.1867 197° South 153 176 4,300 1,644 Climbing Los Angeles Center
Wed 08:04:15 PM 36.0092 -115.2275 222° Southwest 225 259 5,600 1,742 Climbing Los Angeles Center
Wed 08:04:31 PM 35.9992 -115.2372 218° Southwest 216 249 6,100 1,967 Climbing Los Angeles Center
Wed 08:05:16 PM 35.9608 -115.2142 154° Southeast 242 278 7,600 1,742 Climbing Los Angeles Center
Wed 08:05:33 PM 35.9603 -115.1925 92° East 247 284 7,900 1,970 Climbing Los Angeles Center
Wed 08:06:23 PM 35.9569 -115.1169 93° East 276 318 9,800 2,323 Climbing Los Angeles Center
Wed 08:06:35 PM 35.9564 -115.0958 92° East 265 305 10,300 1,279 Climbing Los Angeles Center
Wed 08:07:24 PM 35.9550 -115.0194 91° East 278 320 11,100 952 Climbing Los Angeles Center
Wed 08:07:38 PM 35.9564 -114.9953 86° East 279 321 11,300 1,895 Climbing Los Angeles Center
Wed 08:08:40 PM 35.9544 -114.9036 91° East 305 351 13,500 1,355 Climbing Los Angeles Center
Wed 08:09:42 PM 35.9489 -114.7739 93° East 316 364 14,100 677 Climbing Los Angeles Center
Wed 08:10:44 PM 35.9606 -114.6453 84° East 346 398 14,900 1,258 Climbing Los Angeles Center
Wed 08:11:46 PM 35.9778 -114.5092 81° East 377 434 16,700 1,839 Climbing Los Angeles Center
Wed 08:12:48 PM 35.9811 -114.3747 88° East 391 450 18,700 1,887 Climbing Los Angeles Center
Wed 08:13:50 PM 35.9797 -114.2358 91° East 402 463 20,600 1,887 Climbing Los Angeles Center
Wed 08:14:52 PM 35.9781 -114.0983 91° East 402 463 22,600 2,177 Climbing Los Angeles Center
Wed 08:15:54 PM 35.9772 -113.9350 90° East 402 463 25,100 2,160 Climbing Los Angeles Center
Wed 08:16:57 PM 35.9750 -113.7989 91° East 400 460 27,100 1,968 Climbing Los Angeles Center
Wed 08:17:59 PM 35.9742 -113.6644 90° East 399 459 29,200 1,548 Climbing Los Angeles Center
Wed 08:19:01 PM 35.9825 -113.5289 86° East 398 458 30,300 532 Climbing Los Angeles Center
Wed 08:20:03 PM 36.0017 -113.3808 81° East 428 493 30,300 97 Level Los Angeles Center
Wed 08:21:05 PM 36.0250 -113.1858 82° East 479 551 30,500 581 Climbing Los Angeles Center
Wed 08:22:07 PM 36.0425 -113.0158 83° East 496 571 31,500 968 Climbing Los Angeles Center
Wed 08:23:09 PM 36.0644 -112.8489 81° East 496 571 32,500 1,016 Climbing Los Angeles Center
Wed 08:24:11 PM 36.0811 -112.6811 83° East 496 571 33,600 1,016 Climbing Los Angeles Center
Wed 08:25:13 PM 36.0789 -112.5158 91° East 485 558 34,600 1,016 Climbing Los Angeles Center
Wed 08:26:15 PM 36.0753 -112.3492 91° East 486 559 35,700 1,065 Climbing Los Angeles Center
Wed 08:27:17 PM 36.0700 -112.1683 92° East 493 567 36,800 1,065 Climbing Los Angeles Center
Wed 08:28:19 PM 36.0644 -112.0011 92° East 491 565 37,900 -11,129 Climbing Los Angeles Center
Wed 08:29:21 PM 36.0567 -111.8136 93° East 489 563 13,800 -12,629 Descending Los Angeles Center
Wed 08:30:23 PM 36.0478 -111.6406 94° East 499 574 11,800 -4,125 Descending Los Angeles Center
Wed 08:30:57 PM 36.0325 -111.5467 101° East 487 560 7,200 9,750 Descending Denver Center
Wed 08:31:59 PM 36.0258 -111.3839 93° East 487 560 27,400 3,339 Climbing Denver Center
Wed 08:33:01 PM 36.0167 -111.2144 94° East 493 567 14,100 4,387 Descending Denver Center
Wed 08:35:05 PM 36.0081 -110.8292 91° East 510 587 41,000 8,677 Climbing Denver Center
Wed 08:36:07 PM 36.0000 -110.6564 93° East 510 587 41,000  Level Denver Center
Wed 08:37:09 PM 35.9919 -110.4847 93° East 505 581 41,000  Level Denver Center
Wed 08:38:11 PM 35.9822 -110.3144 94° East 504 580 41,000  Level Denver Center
Wed 08:39:13 PM 35.9731 -110.1428 94° East 497 572 41,000  Level Denver Center
Wed 08:40:15 PM 35.9631 -109.9600 94° East 495 570 41,000  Level Denver Center
Wed 08:40:58 PM 35.9561 -109.8258 94° East 492 566 41,000  Level Albuquerque Center
Wed 08:42:00 PM 35.9469 -109.6664 94° East 491 565 41,000  Level Albuquerque Center
Wed 08:43:02 PM 35.9381 -109.5089 94° East 486 559 41,000  Level Albuquerque Center
Wed 08:44:03 PM 35.9278 -109.3247 94° East 484 557 41,000  Level Albuquerque Center
Wed 08:45:05 PM 35.9181 -109.1681 94° East 484 557 41,000  Level Albuquerque Center
Wed 08:46:07 PM 35.9083 -108.9792 94° East 486 559 41,000  Level Albuquerque Center
Wed 08:47:09 PM 35.8958 -108.8031 95° East 484 557 41,000  Level Albuquerque Center
Wed 08:48:11 PM 35.8872 -108.6461 94° East 484 557 41,000  Level Albuquerque Center
Wed 08:49:13 PM 35.8758 -108.4633 94° East 484 557 41,000  Level Albuquerque Center
Wed 08:50:15 PM 35.8653 -108.3056 95° East 484 557 41,000  Level Albuquerque Center
Wed 08:51:17 PM 35.8542 -108.1469 95° East 484 557 41,000  Level Albuquerque Center
Wed 08:52:18 PM 35.8419 -107.9631 95° East 484 557 41,000  Level Albuquerque Center
Wed 08:53:20 PM 35.8306 -107.8053 95° East 484 557 41,000  Level Albuquerque Center
Wed 08:54:22 PM 35.8167 -107.6231 95° East 484 557 41,000  Level Albuquerque Center
Wed 08:55:24 PM 35.8058 -107.4653 95° East 483 556 41,000  Level Albuquerque Center
Wed 08:56:26 PM 35.7922 -107.2844 95° East 479 551 41,000  Level Albuquerque Center
Wed 08:57:28 PM 35.7800 -107.1275 95° East 479 551 41,000  Level Albuquerque Center
Wed 08:58:30 PM 35.7675 -106.9472 95° East 478 550 41,000  Level Albuquerque Center
Wed 08:59:32 PM 35.7514 -106.7892 97° East 474 545 41,000  Level Albuquerque Center
Wed 09:00:33 PM 35.7383 -106.6156 95° East 473 544 41,000  Level Albuquerque Center
Wed 09:01:35 PM 35.7275 -106.4575 95° East 474 545 41,000  Level Albuquerque Center
Wed 09:02:37 PM 35.7125 -106.2969 97° East 476 548 41,000  Level Albuquerque Center
Wed 09:03:39 PM 35.7014 -106.1414 95° East 463 533 41,000  Level Albuquerque Center
Wed 09:04:41 PM 35.6878 -105.9814 96° East 462 532 41,000  Level Albuquerque Center
Wed 09:05:43 PM 35.6744 -105.8236 96° East 465 535 41,000  Level Albuquerque Center
Wed 09:06:44 PM 35.6592 -105.6650 97° East 465 535 41,000  Level Albuquerque Center
Wed 09:07:46 PM 35.6422 -105.4939 97° East 465 535 41,000  Level Albuquerque Center
Wed 09:08:48 PM 35.6278 -105.3358 96° East 462 532 41,000 -48 Level Albuquerque Center
Wed 09:09:50 PM 35.6114 -105.1511 96° East 461 531 40,900  Descending Albuquerque Center
Wed 09:10:52 PM 35.5944 -104.9961 98° East 460 529 41,000 49 Climbing Albuquerque Center
Wed 09:11:53 PM 35.5797 -104.8381 96° East 460 529 41,000  Level Albuquerque Center
Wed 09:12:55 PM 35.5647 -104.6803 97° East 459 528 41,000  Level Albuquerque Center
Wed 09:13:57 PM 35.5492 -104.5231 97° East 460 529 41,000  Level Albuquerque Center
Wed 09:14:59 PM 35.5339 -104.3658 97° East 456 525 41,000  Level Albuquerque Center
Wed 09:16:01 PM 35.5192 -104.2100 97° East 456 525 41,000  Level Albuquerque Center
Wed 09:17:03 PM 35.5031 -104.0519 97° East 456 525 41,000  Level Albuquerque Center
Wed 09:18:05 PM 35.4867 -103.8953 97° East 456 525 41,000  Level Albuquerque Center
Wed 09:19:06 PM 35.4703 -103.7383 97° East 456 525 41,000  Level Albuquerque Center
Wed 09:20:08 PM 35.4539 -103.5822 97° East 456 525 41,000  Level Albuquerque Center
Wed 09:21:10 PM 35.4339 -103.4003 98° East 456 525 41,000  Level Albuquerque Center
Wed 09:22:12 PM 35.4172 -103.2450 97° East 456 525 41,000  Level Albuquerque Center
Wed 09:23:14 PM 35.3997 -103.0894 98° East 456 525 41,000  Level Albuquerque Center
Wed 09:24:15 PM 35.3817 -102.9331 98° East 457 526 41,000  Level Albuquerque Center
Wed 09:25:17 PM 35.3644 -102.7764 98° East 457 526 41,000  Level Albuquerque Center
Wed 09:26:19 PM 35.3458 -102.6203 98° East 457 526 41,000  Level Albuquerque Center
Wed 09:27:20 PM 35.3264 -102.4667 99° East 458 527 41,000  Level Albuquerque Center
Wed 09:28:22 PM 35.3081 -102.3119 98° East 458 527 41,000  Level Albuquerque Center
Wed 09:29:24 PM 35.2894 -102.1569 98° East 460 529 41,000  Level Albuquerque Center
Wed 09:30:25 PM 35.2706 -102.0014 98° East 461 531 41,000  Level Albuquerque Center
Wed 09:31:27 PM 35.2575 -101.8081 95° East 463 533 41,000  Level Albuquerque Center
Wed 09:32:29 PM 35.2289 -101.6511 103° East 465 535 41,000  Level Albuquerque Center
Wed 09:33:30 PM 35.2033 -101.5000 102° East 464 534 41,000  Level Albuquerque Center
Wed 09:34:32 PM 35.1703 -101.3475 105° East 464 534 41,000  Level Albuquerque Center
Wed 09:35:34 PM 35.1364 -101.1814 104° East 467 537 41,000  Level Albuquerque Center
Wed 09:36:35 PM 35.1069 -101.0297 103° East 466 536 41,000  Level Albuquerque Center
Wed 09:37:37 PM 35.0781 -100.8775 103° East 463 533 41,000  Level Albuquerque Center
Wed 09:38:39 PM 35.0472 -100.7253 104° East 463 533 41,000  Level Albuquerque Center
Wed 09:39:31 PM 35.0175 -100.5825 104° East 463 533 41,000  Level Fort Worth Center
Wed 09:40:33 PM 34.9867 -100.4294 104° East 463 533 41,000  Level Fort Worth Center
Wed 09:41:35 PM 34.9556 -100.2756 104° East 467 537 41,000  Level Fort Worth Center
Wed 09:42:37 PM 34.9244 -100.1217 104° East 468 539 41,000  Level Fort Worth Center
Wed 09:43:39 PM 34.8939 -99.9694 104° East 466 536 41,000  Level Fort Worth Center
Wed 09:44:40 PM 34.8544 -99.7828 104° East 473 544 41,000  Level Fort Worth Center
Wed 09:45:42 PM 34.8233 -99.6306 104° East 469 540 41,000  Level Fort Worth Center
Wed 09:46:44 PM 34.7908 -99.4794 105° East 466 536 41,000  Level Fort Worth Center
Wed 09:47:46 PM 34.7594 -99.3328 105° East 455 524 41,000  Level Fort Worth Center
Wed 09:48:48 PM 34.7275 -99.1825 104° East 456 525 41,000  Level Fort Worth Center
Wed 09:49:50 PM 34.6922 -99.0317 106° East 460 529 41,000  Level Fort Worth Center
Wed 09:50:52 PM 34.6494 -98.8556 106° East 460 529 41,000  Level Fort Worth Center
Wed 09:51:54 PM 34.6144 -98.7092 106° East 455 524 41,000  Level Fort Worth Center
Wed 09:52:56 PM 34.5783 -98.5636 107° East 454 522 41,000  Level Fort Worth Center
Wed 09:53:57 PM 34.5422 -98.4203 107° East 451 519 41,000  Level Fort Worth Center
Wed 09:54:59 PM 34.5075 -98.2767 106° East 446 513 41,000  Level Fort Worth Center
Wed 09:56:01 PM 34.4708 -98.1319 107° East 451 519 41,000  Level Fort Worth Center
Wed 09:57:03 PM 34.4350 -97.9881 107° East 451 519 41,000  Level Fort Worth Center
Wed 09:58:05 PM 34.3908 -97.8136 107° East 453 521 41,000  Level Fort Worth Center
Wed 09:59:07 PM 34.3547 -97.6667 107° East 454 522 41,000  Level Fort Worth Center
Wed 10:00:08 PM 34.3178 -97.5206 107° East 455 524 41,000  Level Fort Worth Center
Wed 10:01:10 PM 34.2803 -97.3736 107° East 455 524 41,000  Level Fort Worth Center
Wed 10:02:12 PM 34.2428 -97.2253 107° East 459 528 41,000  Level Fort Worth Center
Wed 10:03:14 PM 34.1981 -97.0492 107° East 459 528 41,000  Level Fort Worth Center
Wed 10:04:16 PM 34.1603 -96.9022 107° East 459 528 41,000  Level Fort Worth Center
Wed 10:05:17 PM 34.1217 -96.7561 108° East 459 528 41,000  Level Fort Worth Center
Wed 10:06:19 PM 34.0869 -96.6194 107° East 460 529 41,000  Level Fort Worth Center
Wed 10:07:21 PM 34.0475 -96.4717 108° East 460 529 41,000  Level Fort Worth Center
Wed 10:08:23 PM 34.0008 -96.2933 107° East 463 533 41,000  Level Fort Worth Center
Wed 10:09:25 PM 33.9603 -96.1472 108° East 462 532 41,000  Level Fort Worth Center
Wed 10:10:26 PM 33.9214 -95.9986 107° East 463 533 41,000  Level Fort Worth Center
Wed 10:11:28 PM 33.8817 -95.8525 108° East 462 532 41,000  Level Fort Worth Center
Wed 10:12:30 PM 33.8419 -95.7056 108° East 462 532 41,000  Level Fort Worth Center
Wed 10:13:32 PM 33.7981 -95.5411 108° East 462 532 41,000  Level Fort Worth Center
Wed 10:14:33 PM 33.7569 -95.3953 109° East 462 532 41,000  Level Fort Worth Center
Wed 10:15:35 PM 33.7158 -95.2492 109° East 462 532 41,000  Level Fort Worth Center
Wed 10:16:37 PM 33.6761 -95.1014 108° East 463 533 41,000  Level Fort Worth Center
Wed 10:17:39 PM 33.6361 -94.9550 108° East 463 533 41,000  Level Fort Worth Center
Wed 10:18:40 PM 33.5944 -94.8092 109° East 463 533 41,000  Level Fort Worth Center
Wed 10:19:42 PM 33.5458 -94.6339 108° East 463 533 41,000  Level Fort Worth Center
Wed 10:20:44 PM 33.5053 -94.4889 109° East 463 533 41,000  Level Fort Worth Center
Wed 10:21:46 PM 33.4642 -94.3431 109° East 462 532 41,000  Level Fort Worth Center
Wed 10:22:47 PM 33.4225 -94.1981 109° East 462 532 41,000  Level Fort Worth Center
Wed 10:23:49 PM 33.3789 -94.0492 109° East 461 531 41,000  Level Fort Worth Center
Wed 10:24:51 PM 33.3375 -93.9025 109° East 464 534 41,000  Level Fort Worth Center
Wed 10:25:53 PM 33.2906 -93.7406 109° East 490 564 41,000  Level Fort Worth Center
Wed 10:26:54 PM 33.2486 -93.5958 109° East 464 534 41,000  Level Fort Worth Center
Wed 10:27:56 PM 33.2064 -93.4514 109° East 463 533 41,000  Level Fort Worth Center
Wed 10:28:58 PM 33.1636 -93.3067 109° East 463 533 41,000  Level Fort Worth Center
Wed 10:30:00 PM 33.1203 -93.1625 110° East 460 529 41,000  Level Fort Worth Center
Wed 10:31:01 PM 33.0700 -92.9864 109° East 465 535 41,000  Level Fort Worth Center
Wed 10:32:03 PM 33.0261 -92.8400 110° East 468 539 41,000  Level Fort Worth Center
Wed 10:33:05 PM 32.9825 -92.6944 110° East 468 539 41,000  Level Fort Worth Center
Wed 10:34:07 PM 32.9386 -92.5494 110° East 468 539 41,000  Level Fort Worth Center
Wed 10:35:08 PM 32.8939 -92.4053 110° East 467 537 41,000  Level Fort Worth Center
Wed 10:36:10 PM 32.8497 -92.2583 110° East 468 539 41,000  Level Fort Worth Center
Wed 10:37:12 PM 32.8050 -92.1133 110° East 468 539 41,000  Level Fort Worth Center
Wed 10:38:14 PM 32.7519 -91.9403 110° East 467 537 41,000  Level Fort Worth Center
Wed 10:39:15 PM 32.7092 -91.8017 110° East 467 537 41,000  Level Fort Worth Center
Wed 10:40:17 PM 32.6636 -91.6564 110° East 467 537 41,000  Level Fort Worth Center
Wed 10:41:19 PM 32.6189 -91.5122 110° East 467 537 41,000  Level Fort Worth Center
Wed 10:42:20 PM 32.5731 -91.3672 111° Southeast 467 537 41,000  Level Fort Worth Center
Wed 10:43:22 PM 32.5186 -91.1936 110° East 467 537 41,000  Level Fort Worth Center
Wed 10:44:24 PM 32.4714 -91.0492 111° Southeast 467 537 41,000  Level Fort Worth Center
Wed 10:45:26 PM 32.4247 -90.9036 111° Southeast 468 539 41,000  Level Fort Worth Center
Wed 10:46:27 PM 32.3789 -90.7597 111° Southeast 468 539 41,000  Level Fort Worth Center
Wed 10:47:44 PM 32.3175 -90.5706 111° Southeast 469 540 41,000  Level Memphis Center
Wed 10:48:46 PM 32.2719 -90.4278 111° Southeast 470 541 41,000  Level Memphis Center
Wed 10:49:47 PM 32.2267 -90.2864 111° Southeast 470 541 41,000  Level Memphis Center
Wed 10:50:49 PM 32.1797 -90.1450 111° Southeast 470 541 41,000  Level Memphis Center
Wed 10:51:50 PM 32.1336 -90.0025 111° Southeast 469 540 41,000  Level Memphis Center
Wed 10:52:52 PM 32.0778 -89.8339 111° Southeast 469 540 41,000  Level Memphis Center
Wed 10:53:53 PM 32.0308 -89.6933 111° Southeast 469 540 41,000  Level Memphis Center
Wed 10:54:55 PM 31.9836 -89.5511 111° Southeast 469 540 41,000  Level Memphis Center
Wed 10:55:56 PM 31.9361 -89.4092 111° Southeast 470 541 41,000  Level Memphis Center
Wed 10:56:58 PM 31.8881 -89.2678 112° Southeast 470 541 41,000  Level Memphis Center
Wed 10:57:59 PM 31.8356 -89.1072 111° Southeast 470 541 41,000  Level Memphis Center
Wed 10:59:01 PM 31.7872 -88.9639 112° Southeast 470 541 41,000  Level Memphis Center
Wed 11:00:02 PM 31.7386 -88.8203 112° Southeast 470 541 41,000  Level Memphis Center
Wed 11:01:04 PM 31.6903 -88.6761 111° Southeast 471 542 41,000  Level Memphis Center
Wed 11:02:05 PM 31.6411 -88.5331 112° Southeast 471 542 41,000  Level Memphis Center
Wed 11:02:43 PM 31.6114 -88.4464 112° Southeast 472 543 41,000  Level Houston Center
Wed 11:03:44 PM 31.5514 -88.2739 112° Southeast 473 544 41,000  Level Houston Center
Wed 11:04:45 PM 31.5022 -88.1300 112° Southeast 472 543 41,000  Level Houston Center
Wed 11:05:46 PM 31.4483 -87.9875 114° Southeast 473 544 41,000  Level Houston Center
Wed 11:06:47 PM 31.3931 -87.8453 114° Southeast 474 545 41,000  Level Houston Center
Wed 11:07:47 PM 31.3361 -87.7028 115° Southeast 476 548 41,000  Level Houston Center
Wed 11:08:48 PM 31.2797 -87.5600 115° Southeast 477 549 41,000  Level Houston Center
Wed 11:09:49 PM 31.2233 -87.4178 115° Southeast 478 550 41,000  Level Houston Center
Wed 11:10:47 PM 31.1758 -87.2944 114° Southeast 474 545 41,000  Level Jacksonville Center
Wed 11:11:46 PM 31.1200 -87.1511 114° Southeast 474 545 41,000  Level Jacksonville Center
Wed 11:12:46 PM 31.0642 -87.0128 115° Southeast 468 539 41,000 -50 Level Jacksonville Center
Wed 11:13:46 PM 31.0081 -86.8722 115° Southeast 468 539 40,900  Descending Jacksonville Center
Wed 11:14:46 PM 30.9519 -86.7319 115° Southeast 473 544 41,000 50 Climbing Jacksonville Center
Wed 11:15:46 PM 30.8914 -86.5914 117° Southeast 473 544 41,000  Level Jacksonville Center
Wed 11:16:46 PM 30.8347 -86.4514 115° Southeast 473 544 41,000  Level Jacksonville Center
Wed 11:17:46 PM 30.7800 -86.3114 114° Southeast 473 544 41,000  Level Jacksonville Center
Wed 11:18:46 PM 30.7233 -86.1717 115° Southeast 473 544 41,000  Level Jacksonville Center
Wed 11:19:46 PM 30.6642 -86.0319 116° Southeast 473 544 41,000  Level Jacksonville Center
Wed 11:20:46 PM 30.6089 -85.8950 115° Southeast 473 544 41,000  Level Jacksonville Center
Wed 11:21:46 PM 30.5517 -85.7583 116° Southeast 473 544 41,000  Level Jacksonville Center
Wed 11:22:46 PM 30.4942 -85.6192 116° Southeast 473 544 41,000  Level Jacksonville Center
Wed 11:23:46 PM 30.4306 -85.4678 116° Southeast 468 539 41,000  Level Jacksonville Center
Wed 11:24:46 PM 30.3728 -85.3292 116° Southeast 468 539 41,000  Level Jacksonville Center
Wed 11:25:46 PM 30.3147 -85.1856 115° Southeast 473 544 41,000  Level Jacksonville Center
Wed 11:26:46 PM 30.2567 -85.0497 116° Southeast 473 544 41,000 -50 Level Jacksonville Center
Wed 11:27:46 PM 30.1942 -84.9114 118° Southeast 473 544 40,900 -200 Descending Jacksonville Center
Wed 11:28:46 PM 30.1378 -84.7708 115° Southeast 473 544 40,600 -350 Descending Jacksonville Center
Wed 11:29:46 PM 30.0772 -84.6353 117° Southeast 473 544 40,200 -700 Descending Jacksonville Center
Wed 11:30:46 PM 30.0225 -84.5000 115° Southeast 467 537 39,200 -992 Descending Jacksonville Center
Wed 11:31:47 PM 29.9617 -84.3669 118° Southeast 467 537 38,200 -1,000 Descending Jacksonville Center
Wed 11:32:46 PM 29.9044 -84.2294 116° Southeast 467 537 37,200 -1,059 Descending Jacksonville Center
Wed 11:33:46 PM 29.8453 -84.0969 117° Southeast 467 537 36,100 -950 Descending Jacksonville Center
Wed 11:34:46 PM 29.7881 -83.9600 116° Southeast 467 537 35,300 -850 Descending Jacksonville Center
Wed 11:35:46 PM 29.7308 -83.8278 116° Southeast 467 537 34,400 -850 Descending Jacksonville Center
Wed 11:36:46 PM 29.6711 -83.6958 117° Southeast 467 537 33,600 -800 Descending Jacksonville Center
Wed 11:37:46 PM 29.6133 -83.5639 117° Southeast 467 537 32,800 -800 Descending Jacksonville Center
Wed 11:38:46 PM 29.5533 -83.4322 118° Southeast 462 532 32,000 -800 Descending Jacksonville Center
Wed 11:39:46 PM 29.4956 -83.2983 116° Southeast 462 532 31,200 -1,200 Descending Jacksonville Center
Wed 11:40:46 PM 29.4353 -83.1597 117° Southeast 467 537 29,600 -1,850 Descending Jacksonville Center
Wed 11:41:46 PM 29.3769 -83.0331 118° Southeast 478 550 27,500 -2,100 Descending Jacksonville Center
Wed 11:42:46 PM 29.3208 -82.8925 115° Southeast 483 556 25,400 -2,150 Descending Jacksonville Center
Wed 11:43:46 PM 29.2603 -82.7497 116° Southeast 488 562 23,200 -2,200 Descending Jacksonville Center
Wed 11:44:46 PM 29.2036 -82.6094 115° Southeast 488 562 21,000 -2,200 Descending Jacksonville Center
Wed 11:45:46 PM 29.1531 -82.4764 113° Southeast 475 547 18,800 -2,150 Descending Jacksonville Center
Wed 11:46:46 PM 29.1025 -82.3458 114° Southeast 459 528 16,700 -2,150 Descending Jacksonville Center
Wed 11:47:46 PM 29.0539 -82.2228 114° Southeast 445 512 14,500 -1,900 Descending Jacksonville Center
Wed 11:48:46 PM 29.0072 -82.1019 114° Southeast 427 491 12,900 -1,450 Descending Jacksonville Center
Wed 11:49:46 PM 28.9542 -81.9742 115° Southeast 406 467 11,600 -1,000 Descending Jacksonville Center
Wed 11:50:46 PM 28.8786 -81.9181 147° Southeast 374 430 10,900 -324 Descending Jacksonville Center
Wed 11:51:37 PM 28.8500 -81.8333 111° Southeast 308 354 11,000 -242 Climbing Orlando TRACON
Wed 11:52:25 PM 28.8167 -81.7667 120° Southeast 312 359 10,500 -824 Descending Orlando TRACON
Wed 11:53:19 PM 28.7667 -81.6833 124° Southeast 333 383 9,600 -1,000 Descending Orlando TRACON
Wed 11:54:13 PM 28.7500 -81.6000 103° East 319 367 8,700 -1,100 Descending Orlando TRACON
Wed 11:55:19 PM 28.7167 -81.5000 111° Southeast 291 335 7,400 -1,524 Descending Orlando TRACON
Wed 11:56:19 PM 28.7167 -81.4000 90° East 288 331 5,500 -1,762 Descending Orlando TRACON
Wed 11:57:25 PM 28.6667 -81.3167 124° Southeast 280 322 3,700 -1,250 Descending Orlando TRACON
Wed 11:58:19 PM 28.6167 -81.3333 196° South 236 272 3,000 -737 Descending Orlando TRACON
Wed 11:59:19 PM 28.5500 -81.3333 180° South 201 231 2,300 -905 Descending Orlando TRACON
Thu 12:00:25 AM 28.5000 -81.3333 180° South 171 197 1,100 -1,000 Descending Orlando TRACON
Thu 12:01:25 AM 28.4500 -81.3333 180° South 132 152 200 -900 Descending Orlando TRACON
Thu 12:03:00 AM 28.4294 -81.3090 180° South  Level Estimated
Thu 12:10:00 AM 28.4294 -81.3090 24° Northeast  Level Estimated
Thu 12:11:00 AM 28.4294 -81.3090 24° Northeast  Level Estimated
Thu 12:12:00 AM 28.4294 -81.3090 24° Northeast  Level Estimated

Login

Don't have an account? Register now (free) for customized features, flight alerts, and more!